Bellefountain, Indiana
Current Conditions -  °F | °C
As of 8:53 AM on Thursday 29 Jan 2015 (Local Time) from KMIE Reporting Station
Scattered Clouds Scattered Clouds  
Wind Chill: -1°   Ceiling: Unl
Heat Index:   Visibility: 10mi
Dew Point: -1°   Wind: 16mph
Humidity: 73%   Direction: 200°SSW
Pressure: 29.75"   Gusts: 26mph
Location:  40.4312°N, 85.0058°W
Report Text: KMIE 291353Z 20014G23KT 10SM SCT120 04/M01 A2975 RMK AO2 SLP079 T00391006
Loading
Personal Weather Stations






























Interactive Weather Map New forecast layout! Learn more

10-Day Weather Forecast

Advertisements
Track Severe Weather on mobile